createdAt,value
2017-08-11T00:00:06.410Z,1019.45
2017-08-11T00:01:15.767Z,1019.45
2017-08-11T00:02:24.653Z,1019.49
2017-08-11T00:03:33.533Z,1019.56
2017-08-11T00:04:42.416Z,1019.51
2017-08-11T00:05:51.945Z,1019.54
2017-08-11T00:07:01.506Z,1019.46
2017-08-11T00:08:11.037Z,1019.5
2017-08-11T00:09:20.565Z,1019.46
2017-08-11T00:10:29.772Z,1019.46
2017-08-11T00:11:39.304Z,1019.47
2017-08-11T00:12:48.490Z,1019.43
2017-08-11T00:13:57.696Z,1019.45
2017-08-11T00:15:07.876Z,1019.48
2017-08-11T00:16:17.409Z,1019.48
2017-08-11T00:17:26.938Z,1019.45
2017-08-11T00:18:35.837Z,1019.48
2017-08-11T00:19:45.686Z,1019.49
2017-08-11T00:20:54.894Z,1019.49
2017-08-11T00:22:03.773Z,1019.49
2017-08-11T00:23:13.302Z,1019.52
2017-08-11T00:24:22.812Z,1019.5
2017-08-11T00:25:32.347Z,1019.5
2017-08-11T00:26:41.878Z,1019.48
2017-08-11T00:27:51.404Z,1019.48
2017-08-11T00:29:01.259Z,1019.42
2017-08-11T00:30:10.338Z,1019.45
2017-08-11T00:31:20.194Z,1019.41
2017-08-11T00:32:29.720Z,1019.35
2017-08-11T00:33:38.626Z,1019.37
2017-08-11T00:34:47.509Z,1019.39
2017-08-11T00:35:56.718Z,1019.43
2017-08-11T00:37:06.247Z,1019.43
2017-08-11T00:38:15.453Z,1019.42
2017-08-11T00:39:24.991Z,1019.49
2017-08-11T00:40:34.521Z,1019.43
2017-08-11T00:41:44.258Z,1019.44
2017-08-11T00:42:53.786Z,1019.46
2017-08-11T00:44:03.323Z,1019.46
2017-08-11T00:45:12.859Z,1019.45
2017-08-11T00:46:22.720Z,1019.46
2017-08-11T00:47:32.250Z,1019.47
2017-08-11T00:48:41.780Z,1019.36
2017-08-11T00:49:51.312Z,1019.31
2017-08-11T00:51:00.524Z,1019.2
2017-08-11T00:52:10.704Z,1019.11
2017-08-11T00:53:20.537Z,1019.07
2017-08-11T00:54:30.390Z,1019.05
2017-08-11T00:55:39.270Z,1019.04
2017-08-11T00:56:48.479Z,1019.03
2017-08-11T00:57:58.010Z,1019.07
2017-08-11T00:59:07.366Z,1019.1
2017-08-11T01:00:16.600Z,1019.07
2017-08-11T01:01:26.136Z,1019.08
2017-08-11T01:02:35.989Z,1019.03
2017-08-11T01:03:45.518Z,1019.01
2017-08-11T01:04:55.025Z,1019.02
2017-08-11T01:06:03.910Z,1018.97
2017-08-11T01:07:13.437Z,1018.98
2017-08-11T01:08:23.290Z,1018.99
2017-08-11T01:09:32.511Z,1018.95
2017-08-11T01:10:42.021Z,1018.98
2017-08-11T01:11:51.872Z,1018.95
2017-08-11T01:13:00.756Z,1018.97
2017-08-11T01:14:10.617Z,1018.99
2017-08-11T01:15:19.828Z,1019.08
2017-08-11T01:16:29.835Z,1019.05
2017-08-11T01:17:39.042Z,1019.02
2017-08-11T01:18:48.255Z,1018.99
2017-08-11T01:19:57.791Z,1018.93
2017-08-11T01:21:07.324Z,1018.96
2017-08-11T01:22:16.581Z,1018.88
2017-08-11T01:23:26.111Z,1018.84
2017-08-11T01:24:35.962Z,1018.8
2017-08-11T01:25:45.529Z,1018.83
2017-08-11T01:26:54.733Z,1018.77
2017-08-11T01:28:04.005Z,1018.8
2017-08-11T01:29:13.589Z,1018.73
2017-08-11T01:30:23.128Z,1018.75
2017-08-11T01:31:32.683Z,1018.73
2017-08-11T01:32:41.568Z,1018.71
2017-08-11T01:33:50.603Z,1018.7
2017-08-11T01:35:00.139Z,1018.7
2017-08-11T01:36:09.343Z,1018.69
2017-08-11T01:37:18.876Z,1018.65
2017-08-11T01:38:29.053Z,1018.72
2017-08-11T01:39:39.341Z,1018.79
2017-08-11T01:40:49.195Z,1018.76
2017-08-11T01:41:58.076Z,1018.78
2017-08-11T01:43:07.926Z,1018.79
2017-08-11T01:44:17.787Z,1018.84
2017-08-11T01:45:27.418Z,1018.87
2017-08-11T01:46:36.300Z,1018.88
2017-08-11T01:47:46.150Z,1018.88
2017-08-11T01:48:55.033Z,1018.85
2017-08-11T01:50:04.566Z,1018.87
2017-08-11T01:51:14.470Z,1018.85
2017-08-11T01:52:23.359Z,1018.9
2017-08-11T01:53:32.568Z,1018.9
2017-08-11T01:54:42.100Z,1018.92
2017-08-11T01:55:50.981Z,1018.93
2017-08-11T01:56:59.910Z,1018.93
2017-08-11T01:58:08.794Z,1018.87
2017-08-11T01:59:18.006Z,1018.88
2017-08-11T02:00:27.862Z,1018.83
2017-08-11T02:01:37.396Z,1018.8
2017-08-11T02:02:46.976Z,1018.78
2017-08-11T02:03:56.508Z,1018.75
2017-08-11T02:05:06.046Z,1018.72
2017-08-11T02:06:15.900Z,1018.66
2017-08-11T02:07:25.119Z,1018.7
2017-08-11T02:08:34.801Z,1018.64
2017-08-11T02:09:44.006Z,1018.65
2017-08-11T02:10:54.183Z,1018.64
2017-08-11T02:12:03.713Z,1018.66
2017-08-11T02:13:13.244Z,1018.66
2017-08-11T02:14:22.976Z,1018.67
2017-08-11T02:15:31.855Z,1018.67
2017-08-11T02:16:41.390Z,1018.65
2017-08-11T02:17:50.926Z,1018.66
2017-08-11T02:19:01.104Z,1018.64
2017-08-11T02:20:10.643Z,1018.6
2017-08-11T02:21:20.177Z,1018.6
2017-08-11T02:22:29.709Z,1018.65
2017-08-11T02:23:39.561Z,1018.65
2017-08-11T02:24:49.413Z,1018.61
2017-08-11T02:25:58.448Z,1018.63
2017-08-11T02:27:07.975Z,1018.62
2017-08-11T02:28:17.506Z,1018.63
2017-08-11T02:29:27.077Z,1018.63
2017-08-11T02:30:36.606Z,1018.63
2017-08-11T02:31:46.517Z,1018.63
2017-08-11T02:32:56.702Z,1018.63
2017-08-11T02:34:06.550Z,1018.64
2017-08-11T02:35:16.412Z,1018.62
2017-08-11T02:36:26.265Z,1018.62
2017-08-11T02:37:36.221Z,1018.58
2017-08-11T02:38:45.748Z,1018.62
2017-08-11T02:39:55.285Z,1018.56
2017-08-11T02:41:04.494Z,1018.53
2017-08-11T02:42:14.343Z,1018.49
2017-08-11T02:43:23.978Z,1018.48
2017-08-11T02:44:33.513Z,1018.4
2017-08-11T02:45:42.721Z,1018.39
2017-08-11T02:46:52.581Z,1018.33
2017-08-11T02:48:01.466Z,1018.3
2017-08-11T02:49:11.469Z,1018.27
2017-08-11T02:50:21.002Z,1018.32
2017-08-11T02:51:30.536Z,1018.36
2017-08-11T02:52:39.742Z,1018.38
2017-08-11T02:53:49.275Z,1018.34
2017-08-11T02:54:59.112Z,1018.35
2017-08-11T02:56:08.641Z,1018.37
2017-08-11T02:57:17.847Z,1018.37
2017-08-11T02:58:26.728Z,1018.35
2017-08-11T02:59:35.607Z,1018.29
2017-08-11T03:00:45.240Z,1018.3
2017-08-11T03:01:54.448Z,1018.31
2017-08-11T03:03:03.656Z,1018.27
2017-08-11T03:04:13.185Z,1018.29
2017-08-11T03:05:22.719Z,1018.25
2017-08-11T03:06:32.073Z,1018.22
2017-08-11T03:07:41.603Z,1018.17
2017-08-11T03:08:50.808Z,1018.16
2017-08-11T03:09:59.698Z,1018.14
2017-08-11T03:11:09.233Z,1018.07
2017-08-11T03:12:18.444Z,1018.03
2017-08-11T03:13:27.653Z,1018.04
2017-08-11T03:14:37.189Z,1018
2017-08-11T03:15:47.370Z,1017.99
2017-08-11T03:16:56.578Z,1018.04
2017-08-11T03:18:06.164Z,1018
2017-08-11T03:19:15.049Z,1018.03
2017-08-11T03:20:24.255Z,1018.04
2017-08-11T03:21:33.136Z,1018.04
2017-08-11T03:22:42.022Z,1018.03
2017-08-11T03:23:51.104Z,1018.03
2017-08-11T03:25:00.310Z,1018.01
2017-08-11T03:26:09.841Z,1018.02
2017-08-11T03:27:19.046Z,1018.02
2017-08-11T03:28:28.904Z,1017.99
2017-08-11T03:29:38.087Z,1017.97
2017-08-11T03:30:47.616Z,1017.93
2017-08-11T03:31:57.482Z,1017.91
2017-08-11T03:33:07.010Z,1017.9
2017-08-11T03:34:17.183Z,1017.88
2017-08-11T03:35:26.368Z,1017.85
2017-08-11T03:36:35.575Z,1017.87
2017-08-11T03:37:44.457Z,1017.85
2017-08-11T03:38:54.308Z,1017.86
2017-08-11T03:40:03.516Z,1017.87
2017-08-11T03:41:12.552Z,1017.82
2017-08-11T03:42:22.081Z,1017.83
2017-08-11T03:43:31.613Z,1017.82
2017-08-11T03:44:40.815Z,1017.83
2017-08-11T03:45:50.994Z,1017.83
2017-08-11T03:47:01.417Z,1017.76
2017-08-11T03:48:11.270Z,1017.77
2017-08-11T03:49:20.810Z,1017.73
2017-08-11T03:50:30.015Z,1017.71
2017-08-11T03:51:39.223Z,1017.67
2017-08-11T03:52:49.103Z,1017.67
2017-08-11T03:53:58.310Z,1017.61
2017-08-11T03:55:07.515Z,1017.66
2017-08-11T03:56:17.381Z,1017.74
2017-08-11T03:57:26.935Z,1017.74
2017-08-11T03:58:36.242Z,1017.77
2017-08-11T03:59:45.127Z,1017.78
2017-08-11T04:00:54.659Z,1017.79
2017-08-11T04:02:04.210Z,1017.78
2017-08-11T04:03:13.414Z,1017.8
2017-08-11T04:04:23.096Z,1017.77
2017-08-11T04:05:32.950Z,1017.78
2017-08-11T04:06:42.158Z,1017.76
2017-08-11T04:07:51.689Z,1017.77
2017-08-11T04:09:01.541Z,1017.65
2017-08-11T04:10:11.543Z,1017.64
2017-08-11T04:11:20.422Z,1017.64
2017-08-11T04:12:29.953Z,1017.57
2017-08-11T04:13:39.804Z,1017.57
2017-08-11T04:14:48.686Z,1017.55
2017-08-11T04:15:58.690Z,1017.57
2017-08-11T04:17:08.224Z,1017.55
2017-08-11T04:18:17.437Z,1017.62
2017-08-11T04:19:26.642Z,1017.57
2017-08-11T04:20:35.523Z,1017.64
2017-08-11T04:21:45.101Z,1017.61
2017-08-11T04:22:54.307Z,1017.58
2017-08-11T04:24:03.834Z,1017.61
2017-08-11T04:25:12.725Z,1017.6
2017-08-11T04:26:22.254Z,1017.57
2017-08-11T04:27:32.261Z,1017.52
2017-08-11T04:28:41.493Z,1017.51
2017-08-11T04:29:50.699Z,1017.54
2017-08-11T04:30:59.589Z,1017.52
2017-08-11T04:32:08.795Z,1017.47
2017-08-11T04:33:17.675Z,1017.44
2017-08-11T04:34:26.883Z,1017.44
2017-08-11T04:35:36.090Z,1017.45
2017-08-11T04:36:45.618Z,1017.42
2017-08-11T04:37:55.145Z,1017.42
2017-08-11T04:39:04.935Z,1017.42
2017-08-11T04:40:14.787Z,1017.43
2017-08-11T04:41:24.321Z,1017.47
2017-08-11T04:42:33.864Z,1017.46
2017-08-11T04:43:43.437Z,1017.49
2017-08-11T04:44:52.955Z,1017.49
2017-08-11T04:46:02.159Z,1017.49
2017-08-11T04:47:11.393Z,1017.52
2017-08-11T04:48:21.248Z,1017.52
2017-08-11T04:49:30.458Z,1017.52
2017-08-11T04:50:39.710Z,1017.49
2017-08-11T04:51:48.595Z,1017.51
2017-08-11T04:52:58.125Z,1017.51
2017-08-11T04:54:07.665Z,1017.55
2017-08-11T04:55:17.192Z,1017.55
2017-08-11T04:56:26.722Z,1017.57
2017-08-11T04:57:36.576Z,1017.58
2017-08-11T04:58:45.785Z,1017.58
2017-08-11T04:59:55.310Z,1017.57
2017-08-11T05:01:04.522Z,1017.57
2017-08-11T05:02:14.958Z,1017.59
2017-08-11T05:03:25.144Z,1017.6
2017-08-11T05:04:34.698Z,1017.64
2017-08-11T05:05:43.583Z,1017.69
2017-08-11T05:06:53.169Z,1017.63
2017-08-11T05:08:03.081Z,1017.64
2017-08-11T05:09:11.973Z,1017.65
2017-08-11T05:10:21.830Z,1017.62
2017-08-11T05:11:30.726Z,1017.64
2017-08-11T05:12:39.944Z,1017.65
2017-08-11T05:13:49.624Z,1017.63
2017-08-11T05:14:59.153Z,1017.64
2017-08-11T05:16:08.687Z,1017.65
2017-08-11T05:17:17.568Z,1017.66
2017-08-11T05:18:26.453Z,1017.68
2017-08-11T05:19:35.817Z,1017.71
2017-08-11T05:20:45.670Z,1017.72
2017-08-11T05:21:55.201Z,1017.69
2017-08-11T05:23:04.097Z,1017.72
2017-08-11T05:24:13.308Z,1017.67
2017-08-11T05:25:22.838Z,1017.68
2017-08-11T05:26:32.693Z,1017.71
2017-08-11T05:27:42.222Z,1017.72
2017-08-11T05:28:51.753Z,1017.72
2017-08-11T05:30:00.638Z,1017.77
2017-08-11T05:31:10.977Z,1017.76
2017-08-11T05:32:20.512Z,1017.79
2017-08-11T05:33:29.717Z,1017.79
2017-08-11T05:34:38.927Z,1017.75
2017-08-11T05:35:48.132Z,1017.78
2017-08-11T05:36:57.535Z,1017.79
2017-08-11T05:38:06.741Z,1017.82
2017-08-11T05:39:16.272Z,1017.81
2017-08-11T05:40:25.152Z,1017.79
2017-08-11T05:41:34.038Z,1017.81
2017-08-11T05:42:43.394Z,1017.77
2017-08-11T05:43:52.605Z,1017.75
2017-08-11T05:45:02.456Z,1017.73
2017-08-11T05:46:11.985Z,1017.76
2017-08-11T05:47:21.519Z,1017.75
2017-08-11T05:48:30.727Z,1017.72
2017-08-11T05:49:40.255Z,1017.78
2017-08-11T05:50:49.789Z,1017.78
2017-08-11T05:51:58.993Z,1017.75
2017-08-11T05:53:07.872Z,1017.76
2017-08-11T05:54:17.180Z,1017.7
2017-08-11T05:55:26.065Z,1017.69
2017-08-11T05:56:35.273Z,1017.7
2017-08-11T05:57:44.478Z,1017.67
2017-08-11T05:58:53.693Z,1017.72
2017-08-11T06:00:02.884Z,1017.77
2017-08-11T06:01:12.095Z,1017.76
2017-08-11T06:02:21.300Z,1017.79
2017-08-11T06:03:30.829Z,1017.79
2017-08-11T06:04:40.357Z,1017.79
2017-08-11T06:05:49.344Z,1017.79
2017-08-11T06:06:58.872Z,1017.8
2017-08-11T06:08:08.406Z,1017.78
2017-08-11T06:09:17.938Z,1017.76
2017-08-11T06:10:28.116Z,1017.8
2017-08-11T06:11:38.026Z,1017.79
2017-08-11T06:12:47.910Z,1017.82
2017-08-11T06:13:57.762Z,1017.75
2017-08-11T06:15:07.616Z,1017.82
2017-08-11T06:16:16.507Z,1017.8
2017-08-11T06:17:26.470Z,1017.82
2017-08-11T06:18:35.683Z,1017.84
2017-08-11T06:19:45.214Z,1017.81
2017-08-11T06:20:55.072Z,1017.8
2017-08-11T06:22:04.602Z,1017.8
2017-08-11T06:23:14.112Z,1017.81
2017-08-11T06:24:23.320Z,1017.81
2017-08-11T06:25:32.730Z,1017.83
2017-08-11T06:26:42.258Z,1017.8
2017-08-11T06:27:52.108Z,1017.78
2017-08-11T06:29:01.790Z,1017.85
2017-08-11T06:30:10.998Z,1017.83
2017-08-11T06:31:20.529Z,1017.86
2017-08-11T06:32:30.056Z,1017.85
2017-08-11T06:33:39.261Z,1017.85
2017-08-11T06:34:48.886Z,1017.84
2017-08-11T06:35:58.418Z,1017.82
2017-08-11T06:37:08.274Z,1017.85
2017-08-11T06:38:17.483Z,1017.83
2017-08-11T06:39:27.013Z,1017.84
2017-08-11T06:40:36.065Z,1017.79
2017-08-11T06:41:45.590Z,1017.78
2017-08-11T06:42:55.442Z,1017.75
2017-08-11T06:44:05.295Z,1017.74
2017-08-11T06:45:14.506Z,1017.78
2017-08-11T06:46:24.085Z,1017.79
2017-08-11T06:47:33.614Z,1017.79
2017-08-11T06:48:43.138Z,1017.79
2017-08-11T06:49:52.690Z,1017.77
2017-08-11T06:51:01.574Z,1017.8
2017-08-11T06:52:11.028Z,1017.77
2017-08-11T06:53:20.231Z,1017.74
2017-08-11T06:54:30.090Z,1017.73
2017-08-11T06:55:39.296Z,1017.73
2017-08-11T06:56:48.500Z,1017.73
2017-08-11T06:57:57.758Z,1017.7
2017-08-11T06:59:06.963Z,1017.65
2017-08-11T07:00:16.171Z,1017.72
2017-08-11T07:01:25.052Z,1017.69
2017-08-11T07:02:34.910Z,1017.66
2017-08-11T07:03:43.792Z,1017.69
2017-08-11T07:04:53.005Z,1017.67
2017-08-11T07:06:02.859Z,1017.67
2017-08-11T07:07:12.393Z,1017.67
2017-08-11T07:08:21.929Z,1017.63
2017-08-11T07:09:31.761Z,1017.62
2017-08-11T07:10:40.965Z,1017.62
2017-08-11T07:11:50.501Z,1017.55
2017-08-11T07:12:59.709Z,1017.57
2017-08-11T07:14:09.244Z,1017.55
2017-08-11T07:15:18.607Z,1017.55
2017-08-11T07:16:27.817Z,1017.49
2017-08-11T07:17:37.350Z,1017.48
2017-08-11T07:18:46.904Z,1017.47
2017-08-11T07:19:56.755Z,1017.46
2017-08-11T07:21:06.170Z,1017.46
2017-08-11T07:22:15.379Z,1017.46
2017-08-11T07:23:24.588Z,1017.46
2017-08-11T07:24:33.793Z,1017.45
2017-08-11T07:25:43.005Z,1017.41
2017-08-11T07:26:52.689Z,1017.4
2017-08-11T07:28:02.219Z,1017.42
2017-08-11T07:29:12.090Z,1017.35
2017-08-11T07:30:21.301Z,1017.37
2017-08-11T07:31:30.185Z,1017.34
2017-08-11T07:32:39.448Z,1017.35
2017-08-11T07:33:48.990Z,1017.3
2017-08-11T07:34:58.520Z,1017.27
2017-08-11T07:36:07.725Z,1017.29
2017-08-11T07:37:16.932Z,1017.27
2017-08-11T07:38:26.757Z,1017.26
2017-08-11T07:39:36.611Z,1017.29
2017-08-11T07:40:45.821Z,1017.28
2017-08-11T07:41:54.707Z,1017.26
2017-08-11T07:43:03.924Z,1017.27
2017-08-11T07:44:13.342Z,1017.22
2017-08-11T07:45:22.227Z,1017.24
2017-08-11T07:46:31.435Z,1017.25
2017-08-11T07:47:40.967Z,1017.28
2017-08-11T07:48:50.495Z,1017.23
2017-08-11T07:49:59.858Z,1017.26
2017-08-11T07:51:09.712Z,1017.24
2017-08-11T07:52:18.922Z,1017.21
2017-08-11T07:53:28.486Z,1017.23
2017-08-11T07:54:37.372Z,1017.19
2017-08-11T07:55:47.427Z,1017.17
2017-08-11T07:56:56.633Z,1017.12
2017-08-11T07:58:05.841Z,1017.16
2017-08-11T07:59:15.052Z,1017.15
2017-08-11T08:00:24.268Z,1017.15
2017-08-11T08:01:34.004Z,1017.15
2017-08-11T08:02:43.210Z,1017.15
2017-08-11T08:03:52.421Z,1017.13
2017-08-11T08:05:01.953Z,1017.1
2017-08-11T08:06:12.147Z,1017.11
2017-08-11T08:07:21.331Z,1017.12
2017-08-11T08:08:30.861Z,1017.08
2017-08-11T08:09:40.074Z,1017.03
2017-08-11T08:10:49.925Z,1017.06
2017-08-11T08:11:59.138Z,1017.06
2017-08-11T08:13:08.722Z,1017.04
2017-08-11T08:14:18.261Z,1017.06
2017-08-11T08:15:27.468Z,1017.01
2017-08-11T08:16:36.679Z,1016.97
2017-08-11T08:17:45.562Z,1016.97
2017-08-11T08:18:54.872Z,1016.97
2017-08-11T08:20:05.073Z,1017
2017-08-11T08:21:14.612Z,1016.93
2017-08-11T08:22:24.146Z,1016.96
2017-08-11T08:23:34.005Z,1016.97
2017-08-11T08:24:44.162Z,1017
2017-08-11T08:25:53.376Z,1017.04
2017-08-11T08:27:02.583Z,1016.99
2017-08-11T08:28:12.441Z,1016.95
2017-08-11T08:29:21.653Z,1016.93
2017-08-11T08:30:30.910Z,1016.95
2017-08-11T08:31:39.792Z,1016.91
2017-08-11T08:32:49.002Z,1016.95
2017-08-11T08:33:58.211Z,1017.06
2017-08-11T08:35:07.743Z,1017.09
2017-08-11T08:36:16.953Z,1017.1
2017-08-11T08:37:26.489Z,1017.16
2017-08-11T08:38:36.346Z,1017.17
2017-08-11T08:39:45.880Z,1017.19
2017-08-11T08:40:55.733Z,1017.23
2017-08-11T08:42:05.366Z,1017.2
2017-08-11T08:43:14.575Z,1017.19
2017-08-11T08:44:23.785Z,1017.12
2017-08-11T08:45:33.637Z,1017.1
2017-08-11T08:46:43.489Z,1017.06
2017-08-11T08:47:52.777Z,1017.05
2017-08-11T08:49:02.326Z,1017.07
2017-08-11T08:50:11.859Z,1017.06
2017-08-11T08:51:21.408Z,1017.09
2017-08-11T08:52:30.946Z,1017.12
2017-08-11T08:53:40.306Z,1017.07
2017-08-11T08:54:49.841Z,1017.12
2017-08-11T08:55:59.378Z,1017.07
2017-08-11T08:57:08.912Z,1017.05
2017-08-11T08:58:18.120Z,1017.08
2017-08-11T08:59:27.797Z,1017.02
2017-08-11T09:00:37.003Z,1017.03
2017-08-11T09:01:45.892Z,1017.07
2017-08-11T09:02:55.424Z,1017.09
2017-08-11T09:04:04.635Z,1017.08
2017-08-11T09:05:13.990Z,1017.13
2017-08-11T09:06:22.875Z,1017.11
2017-08-11T09:07:32.086Z,1017.07
2017-08-11T09:08:41.618Z,1017.16
2017-08-11T09:09:51.487Z,1017.17
2017-08-11T09:11:00.699Z,1017.19
2017-08-11T09:12:09.930Z,1017.2
2017-08-11T09:13:19.139Z,1017.18
2017-08-11T09:14:28.998Z,1017.14
2017-08-11T09:15:38.209Z,1017.18
2017-08-11T09:16:47.719Z,1017.12
2017-08-11T09:17:56.605Z,1017.11
2017-08-11T09:19:06.134Z,1017.12
2017-08-11T09:20:15.661Z,1017.15
2017-08-11T09:21:24.870Z,1017.16
2017-08-11T09:22:34.458Z,1017.2
2017-08-11T09:23:43.670Z,1017.21
2017-08-11T09:24:53.199Z,1017.26
2017-08-11T09:26:02.736Z,1017.25
2017-08-11T09:27:11.947Z,1017.23
2017-08-11T09:28:21.465Z,1017.26
2017-08-11T09:29:30.992Z,1017.21
2017-08-11T09:30:40.223Z,1017.16
2017-08-11T09:31:49.753Z,1017.19
2017-08-11T09:32:58.636Z,1017.2
2017-08-11T09:34:08.368Z,1017.19
2017-08-11T09:35:17.251Z,1017.2
2017-08-11T09:36:27.119Z,1017.22
2017-08-11T09:37:36.330Z,1017.25
2017-08-11T09:38:45.552Z,1017.29
2017-08-11T09:39:55.340Z,1017.29
2017-08-11T09:41:05.519Z,1017.31
2017-08-11T09:42:15.700Z,1017.26
2017-08-11T09:43:25.553Z,1017.23
2017-08-11T09:44:35.081Z,1017.2
2017-08-11T09:45:44.013Z,1017.15
2017-08-11T09:46:53.546Z,1017.17
2017-08-11T09:48:03.075Z,1017.15
2017-08-11T09:49:12.286Z,1017.09
2017-08-11T09:50:22.138Z,1017.11
2017-08-11T09:51:31.969Z,1017.11
2017-08-11T09:52:41.821Z,1017.11
2017-08-11T09:53:51.032Z,1017.11
2017-08-11T09:55:00.888Z,1017.13
2017-08-11T09:56:10.421Z,1017.13
2017-08-11T09:57:19.785Z,1017.15
2017-08-11T09:58:28.998Z,1017.13
2017-08-11T09:59:38.209Z,1017.15
2017-08-11T10:00:47.741Z,1017.23
2017-08-11T10:01:56.948Z,1017.2
2017-08-11T10:03:06.578Z,1017.22
2017-08-11T10:04:15.464Z,1017.2
2017-08-11T10:05:24.678Z,1017.22
2017-08-11T10:06:33.891Z,1017.16
2017-08-11T10:07:43.743Z,1017.14
2017-08-11T10:08:53.004Z,1017.15
2017-08-11T10:10:02.551Z,1017.2
2017-08-11T10:11:11.785Z,1017.2
2017-08-11T10:12:21.317Z,1017.17
2017-08-11T10:13:30.526Z,1017.18
2017-08-11T10:14:39.414Z,1017.13
2017-08-11T10:15:48.948Z,1017.18
2017-08-11T10:16:57.830Z,1017.14
2017-08-11T10:18:06.711Z,1017.15
2017-08-11T10:19:15.917Z,1017.12
2017-08-11T10:20:25.703Z,1017.15
2017-08-11T10:21:34.912Z,1017.15
2017-08-11T10:22:44.152Z,1017.16
2017-08-11T10:23:53.035Z,1017.12
2017-08-11T10:25:02.566Z,1017.19
2017-08-11T10:26:12.350Z,1017.15
2017-08-11T10:27:21.555Z,1017.17
2017-08-11T10:28:31.135Z,1017.18
2017-08-11T10:29:40.347Z,1017.17
2017-08-11T10:30:49.573Z,1017.17
2017-08-11T10:31:58.836Z,1017.2
2017-08-11T10:33:08.044Z,1017.13
2017-08-11T10:34:17.258Z,1017.18
2017-08-11T10:35:26.789Z,1017.19
2017-08-11T10:36:36.646Z,1017.18
2017-08-11T10:37:45.907Z,1017.19
2017-08-11T10:38:54.793Z,1017.17
2017-08-11T10:40:04.322Z,1017.15
2017-08-11T10:41:13.204Z,1017.2
2017-08-11T10:42:23.387Z,1017.22
2017-08-11T10:43:32.745Z,1017.23
2017-08-11T10:44:42.597Z,1017.23
2017-08-11T10:45:52.454Z,1017.24
2017-08-11T10:47:01.660Z,1017.27
2017-08-11T10:48:11.512Z,1017.27
2017-08-11T10:49:21.142Z,1017.28
2017-08-11T10:50:30.681Z,1017.23
2017-08-11T10:51:40.544Z,1017.25
2017-08-11T10:52:49.428Z,1017.26
2017-08-11T10:53:58.633Z,1017.2
2017-08-11T10:55:07.894Z,1017.19
2017-08-11T10:56:17.426Z,1017.17
2017-08-11T10:57:26.315Z,1017.2
2017-08-11T10:58:35.846Z,1017.19
2017-08-11T10:59:45.702Z,1017.21
2017-08-11T11:00:54.958Z,1017.23
2017-08-11T11:02:04.817Z,1017.25
2017-08-11T11:03:14.350Z,1017.27
2017-08-11T11:04:24.205Z,1017.26
2017-08-11T11:05:33.418Z,1017.29
2017-08-11T11:06:42.998Z,1017.27
2017-08-11T11:07:52.209Z,1017.27
2017-08-11T11:09:01.413Z,1017.22
2017-08-11T11:10:10.944Z,1017.22
2017-08-11T11:11:20.151Z,1017.2
2017-08-11T11:12:29.836Z,1017.17
2017-08-11T11:13:39.047Z,1017.08
2017-08-11T11:14:47.942Z,1017.05
2017-08-11T11:15:57.147Z,1017.09
2017-08-11T11:17:06.999Z,1017.08
2017-08-11T11:18:17.096Z,1017.08
2017-08-11T11:19:26.309Z,1017.05
2017-08-11T11:20:35.514Z,1017.01
2017-08-11T11:21:44.397Z,1017.02
2017-08-11T11:22:53.601Z,1017
2017-08-11T11:24:03.387Z,1017.03
2017-08-11T11:25:12.269Z,1016.96
2017-08-11T11:26:22.125Z,1016.97
2017-08-11T11:27:31.979Z,1016.98
2017-08-11T11:28:41.193Z,1016.94
2017-08-11T11:29:50.607Z,1016.97
2017-08-11T11:30:59.813Z,1016.93
2017-08-11T11:32:09.354Z,1016.91
2017-08-11T11:33:18.564Z,1016.92
2017-08-11T11:34:28.746Z,1016.88
2017-08-11T11:35:38.105Z,1016.79
2017-08-11T11:36:47.315Z,1016.82
2017-08-11T11:37:57.181Z,1016.78
2017-08-11T11:39:07.033Z,1016.75
2017-08-11T11:40:16.242Z,1016.7
2017-08-11T11:41:26.522Z,1016.7
2017-08-11T11:42:36.401Z,1016.64
2017-08-11T11:43:45.610Z,1016.68
2017-08-11T11:44:54.818Z,1016.69
2017-08-11T11:46:04.995Z,1016.65
2017-08-11T11:47:14.355Z,1016.63
2017-08-11T11:48:23.562Z,1016.59
2017-08-11T11:49:33.093Z,1016.55
2017-08-11T11:50:42.634Z,1016.53
2017-08-11T11:51:52.165Z,1016.49
2017-08-11T11:53:01.526Z,1016.44
2017-08-11T11:54:11.055Z,1016.47
2017-08-11T11:55:20.585Z,1016.47
2017-08-11T11:56:30.456Z,1016.42
2017-08-11T11:57:39.987Z,1016.45
2017-08-11T11:58:49.545Z,1016.39
2017-08-11T11:59:59.402Z,1016.37
2017-08-11T12:01:08.934Z,1016.29
2017-08-11T12:02:18.471Z,1016.28
2017-08-11T12:03:28.012Z,1016.24
2017-08-11T12:04:37.271Z,1016.23
2017-08-11T12:05:46.156Z,1016.24
2017-08-11T12:06:55.695Z,1016.21
2017-08-11T12:08:04.901Z,1016.22
2017-08-11T12:09:14.438Z,1016.21
2017-08-11T12:10:23.645Z,1016.24
2017-08-11T12:11:32.858Z,1016.18
2017-08-11T12:12:41.740Z,1016.18
2017-08-11T12:13:51.274Z,1016.15
2017-08-11T12:15:00.162Z,1016.18
2017-08-11T12:16:09.053Z,1016.08
2017-08-11T12:17:19.239Z,1016.15
2017-08-11T12:18:28.449Z,1016.14
2017-08-11T12:19:37.658Z,1016.13
2017-08-11T12:20:47.221Z,1016.11
2017-08-11T12:21:57.097Z,1016.1
2017-08-11T12:23:06.307Z,1016.07
2017-08-11T12:24:15.846Z,1016.06
2017-08-11T12:25:25.061Z,1016.04
2017-08-11T12:26:34.923Z,1015.98
2017-08-11T12:27:44.454Z,1016
2017-08-11T12:28:53.995Z,1015.96
2017-08-11T12:30:03.206Z,1016.02
2017-08-11T12:31:12.757Z,1016.01
2017-08-11T12:32:22.291Z,1015.98
2017-08-11T12:33:31.823Z,1015.99
2017-08-11T12:34:41.032Z,1016.03
2017-08-11T12:35:50.394Z,1016.03
2017-08-11T12:36:59.602Z,1016
2017-08-11T12:38:08.814Z,1016
2017-08-11T12:39:18.043Z,1015.98
2017-08-11T12:40:27.258Z,1015.96
2017-08-11T12:41:36.622Z,1015.96
2017-08-11T12:42:46.481Z,1016.02
2017-08-11T12:43:55.365Z,1016.01
2017-08-11T12:45:04.899Z,1016.02
2017-08-11T12:46:14.110Z,1016.02
2017-08-11T12:47:23.148Z,1016.04
2017-08-11T12:48:33.004Z,1016.07
2017-08-11T12:49:42.563Z,1016.01
2017-08-11T12:50:52.414Z,1016.04
2017-08-11T12:52:01.310Z,1016.07
2017-08-11T12:53:10.569Z,1016.08
2017-08-11T12:54:20.439Z,1016.13
2017-08-11T12:55:30.625Z,1016.14
2017-08-11T12:56:40.159Z,1016.2
2017-08-11T12:57:49.693Z,1016.19
2017-08-11T12:58:59.539Z,1016.22
2017-08-11T13:00:09.397Z,1016.19
2017-08-11T13:01:18.932Z,1016.23
2017-08-11T13:02:28.470Z,1016.2
2017-08-11T13:03:37.678Z,1016.22
2017-08-11T13:04:47.090Z,1016.19
2017-08-11T13:05:55.984Z,1016.15
2017-08-11T13:07:05.843Z,1016.17
2017-08-11T13:08:14.727Z,1016.14
2017-08-11T13:09:24.258Z,1016.11
2017-08-11T13:10:33.867Z,1016.12
2017-08-11T13:11:43.718Z,1016.12
2017-08-11T13:12:53.246Z,1016.14
2017-08-11T13:14:02.462Z,1016.11
2017-08-11T13:15:11.351Z,1016.11
2017-08-11T13:16:21.030Z,1016.1
2017-08-11T13:17:29.921Z,1016.08
2017-08-11T13:18:39.549Z,1016.08
2017-08-11T13:19:48.445Z,1016.02
2017-08-11T13:20:57.977Z,1016.06
2017-08-11T13:22:07.165Z,1016.08
2017-08-11T13:23:17.017Z,1016.06
2017-08-11T13:24:26.553Z,1016.11
2017-08-11T13:25:35.764Z,1016.09
2017-08-11T13:26:44.977Z,1016.1
2017-08-11T13:27:54.238Z,1016.18
2017-08-11T13:29:03.766Z,1016.2
2017-08-11T13:30:13.303Z,1016.16
2017-08-11T13:31:23.487Z,1016.22
2017-08-11T13:32:33.357Z,1016.25
2017-08-11T13:33:43.687Z,1016.24
2017-08-11T13:34:52.574Z,1016.28
2017-08-11T13:36:01.464Z,1016.33
2017-08-11T13:37:10.675Z,1016.32
2017-08-11T13:38:20.541Z,1016.37
2017-08-11T13:39:30.694Z,1016.42
2017-08-11T13:40:40.227Z,1016.42
2017-08-11T13:41:49.776Z,1016.45
2017-08-11T13:42:59.919Z,1016.44
2017-08-11T13:44:09.771Z,1016.43
2017-08-11T13:45:19.130Z,1016.4
2017-08-11T13:46:28.661Z,1016.34
2017-08-11T13:47:38.200Z,1016.32
2017-08-11T13:48:47.409Z,1016.31
2017-08-11T13:49:56.945Z,1016.26
2017-08-11T13:51:06.733Z,1016.28
2017-08-11T13:52:15.628Z,1016.25
2017-08-11T13:53:24.837Z,1016.22
2017-08-11T13:54:34.374Z,1016.23
2017-08-11T13:55:43.597Z,1016.15
2017-08-11T13:56:53.600Z,1016.19
2017-08-11T13:58:02.815Z,1016.19
2017-08-11T13:59:12.351Z,1016.18
2017-08-11T14:00:22.210Z,1016.15
2017-08-11T14:01:31.434Z,1016.14
2017-08-11T14:02:41.028Z,1016.2